createdAt,value
2023-01-12T00:01:54.430Z,5.85
2023-01-12T00:04:21.610Z,7.47
2023-01-12T00:06:48.768Z,14.30
2023-01-12T00:09:15.933Z,11.80
2023-01-12T00:11:43.514Z,9.73
2023-01-12T00:14:10.541Z,10.35
2023-01-12T00:16:38.142Z,5.72
2023-01-12T00:19:12.141Z,6.07
2023-01-12T00:21:53.412Z,11.35
2023-01-12T00:24:20.641Z,5.35
2023-01-12T00:26:49.115Z,6.05
2023-01-12T00:29:16.976Z,6.57
2023-01-12T00:31:44.145Z,3.15
2023-01-12T00:34:11.566Z,7.10
2023-01-12T00:36:40.896Z,3.75
2023-01-12T00:39:08.380Z,7.00
2023-01-12T00:41:56.352Z,5.97
2023-01-12T00:44:42.185Z,6.95
2023-01-12T00:47:10.155Z,5.78
2023-01-12T00:49:38.108Z,6.68
2023-01-12T00:52:06.308Z,7.25
2023-01-12T00:54:34.508Z,8.63
2023-01-12T00:57:02.229Z,5.68
2023-01-12T00:59:29.746Z,5.18
2023-01-12T01:01:57.683Z,10.32
2023-01-12T01:04:25.009Z,5.75
2023-01-12T01:06:52.036Z,5.03
2023-01-12T01:09:19.385Z,7.15
2023-01-12T01:11:46.367Z,9.82
2023-01-12T01:14:13.403Z,8.25
2023-01-12T01:16:40.438Z,9.88
2023-01-12T01:19:07.826Z,7.43
2023-01-12T01:21:34.965Z,8.32
2023-01-12T01:24:02.022Z,6.78
2023-01-12T01:26:30.902Z,5.75
2023-01-12T01:28:58.313Z,4.93
2023-01-12T01:31:26.593Z,7.13
2023-01-12T01:33:53.873Z,10.13
2023-01-12T01:36:21.704Z,11.23
2023-01-12T01:38:50.380Z,7.00
2023-01-12T01:41:21.785Z,13.10
2023-01-12T01:44:25.806Z,11.63
2023-01-12T01:46:57.491Z,9.90
2023-01-12T01:49:29.633Z,12.07
2023-01-12T01:52:18.993Z,9.38
2023-01-12T01:54:58.871Z,8.65
2023-01-12T01:57:33.497Z,8.93
2023-01-12T02:00:03.396Z,6.50
2023-01-12T02:02:32.430Z,7.82
2023-01-12T02:05:00.856Z,7.63
2023-01-12T02:07:27.849Z,4.80
2023-01-12T02:09:54.825Z,4.90
2023-01-12T02:12:40.350Z,9.38
2023-01-12T02:15:26.261Z,8.90
2023-01-12T02:18:22.705Z,6.78
2023-01-12T02:21:23.455Z,6.60
2023-01-12T02:24:36.706Z,4.10
2023-01-12T02:27:44.494Z,5.28
2023-01-12T02:30:46.368Z,3.90
2023-01-12T02:33:42.039Z,7.90
2023-01-12T02:36:26.705Z,6.50
2023-01-12T02:39:07.352Z,7.75
2023-01-12T02:42:03.454Z,9.38
2023-01-12T02:44:36.553Z,6.53
2023-01-12T02:47:08.564Z,7.75
2023-01-12T02:49:43.437Z,6.47
2023-01-12T02:52:14.570Z,7.43
2023-01-12T02:54:43.890Z,6.47
2023-01-12T02:57:11.137Z,6.13
2023-01-12T02:59:41.949Z,4.30
2023-01-12T03:02:17.212Z,9.00
2023-01-12T03:04:44.193Z,7.15
2023-01-12T03:07:33.195Z,8.93
2023-01-12T03:10:29.233Z,5.65
2023-01-12T03:12:59.652Z,4.22
2023-01-12T03:15:28.974Z,5.90
2023-01-12T03:18:03.789Z,6.65
2023-01-12T03:20:38.254Z,6.85
2023-01-12T03:23:11.864Z,9.05
2023-01-12T03:25:42.270Z,8.45
2023-01-12T03:28:12.832Z,13.18
2023-01-12T03:30:44.050Z,10.85
2023-01-12T03:33:11.925Z,7.20
2023-01-12T03:36:10.987Z,6.32
2023-01-12T03:38:50.534Z,8.60
2023-01-12T03:41:55.856Z,3.85
2023-01-12T03:44:48.655Z,8.88
2023-01-12T03:47:24.164Z,7.35
2023-01-12T03:50:08.754Z,10.75
2023-01-12T03:52:39.489Z,7.72
2023-01-12T03:55:09.983Z,8.65
2023-01-12T03:57:38.240Z,7.60
2023-01-12T04:00:09.776Z,9.90
2023-01-12T04:02:40.098Z,7.63
2023-01-12T04:05:08.406Z,6.80
2023-01-12T04:07:35.360Z,12.13
2023-01-12T04:10:02.244Z,8.43
2023-01-12T04:12:29.371Z,12.63
2023-01-12T04:14:56.356Z,8.55
2023-01-12T04:17:25.344Z,7.47
2023-01-12T04:19:52.744Z,5.85
2023-01-12T04:22:38.411Z,5.30
2023-01-12T04:25:07.147Z,6.85
2023-01-12T04:27:35.599Z,7.90
2023-01-12T04:30:02.844Z,5.65
2023-01-12T04:32:29.809Z,5.22
2023-01-12T04:34:56.750Z,8.40
2023-01-12T04:37:23.762Z,7.25
2023-01-12T04:39:50.706Z,7.93
2023-01-12T04:42:40.843Z,5.63
2023-01-12T04:45:08.336Z,10.50
2023-01-12T04:47:35.338Z,6.93
2023-01-12T04:50:02.452Z,5.03
2023-01-12T04:52:29.477Z,9.00
2023-01-12T04:54:57.029Z,7.95
2023-01-12T04:57:24.364Z,8.45
2023-01-12T04:59:51.284Z,9.10
2023-01-12T05:02:18.319Z,9.25
2023-01-12T05:04:47.806Z,5.93
2023-01-12T05:07:15.535Z,7.18
2023-01-12T05:10:01.118Z,7.00
2023-01-12T05:12:28.153Z,7.75
2023-01-12T05:14:55.104Z,6.22
2023-01-12T05:17:22.115Z,4.40
2023-01-12T05:19:49.724Z,4.22
2023-01-12T05:22:16.805Z,5.93
2023-01-12T05:24:43.795Z,5.68
2023-01-12T05:27:10.743Z,4.75
2023-01-12T05:29:37.724Z,7.07
2023-01-12T05:32:04.851Z,8.77
2023-01-12T05:34:31.765Z,5.03
2023-01-12T05:36:58.892Z,10.43
2023-01-12T05:39:25.897Z,5.70
2023-01-12T05:42:11.319Z,9.15
2023-01-12T05:44:38.323Z,4.90
2023-01-12T05:47:05.274Z,6.07
2023-01-12T05:49:32.277Z,7.43
2023-01-12T05:51:59.225Z,7.35
2023-01-12T05:54:26.963Z,10.48
2023-01-12T05:56:55.445Z,9.55
2023-01-12T05:59:22.397Z,4.60
2023-01-12T06:01:49.363Z,5.85
2023-01-12T06:04:16.421Z,5.55
2023-01-12T06:06:43.495Z,4.00
2023-01-12T06:09:10.575Z,4.78
2023-01-12T06:11:56.190Z,3.60
2023-01-12T06:14:23.172Z,5.85
2023-01-12T06:16:50.115Z,10.10
2023-01-12T06:19:17.047Z,6.78
2023-01-12T06:21:44.052Z,7.65
2023-01-12T06:24:11.090Z,5.90
2023-01-12T06:26:38.215Z,5.05
2023-01-12T06:29:07.204Z,6.38
2023-01-12T06:31:34.704Z,6.88
2023-01-12T06:34:01.670Z,6.30
2023-01-12T06:36:28.620Z,2.95
2023-01-12T06:38:55.533Z,4.45
2023-01-12T06:41:41.278Z,5.38
2023-01-12T06:44:08.222Z,3.03
2023-01-12T06:46:35.256Z,3.78
2023-01-12T06:49:02.404Z,4.40
2023-01-12T06:51:29.341Z,6.97
2023-01-12T06:53:56.330Z,4.72
2023-01-12T06:56:23.717Z,2.33
2023-01-12T06:58:50.729Z,1.92
2023-01-12T07:01:17.777Z,5.90
2023-01-12T07:03:44.948Z,5.70
2023-01-12T07:06:12.038Z,7.28
2023-01-12T07:08:39.035Z,6.03
2023-01-12T07:11:12.596Z,7.15
2023-01-12T07:13:39.616Z,3.35
2023-01-12T07:16:07.074Z,4.70
2023-01-12T07:18:34.217Z,5.63
2023-01-12T07:21:08.287Z,5.05
2023-01-12T07:23:35.736Z,3.28
2023-01-12T07:26:02.735Z,2.63
2023-01-12T07:28:31.487Z,3.42
2023-01-12T07:31:02.896Z,3.78
2023-01-12T07:33:30.187Z,2.20
2023-01-12T07:36:02.195Z,2.63
2023-01-12T07:38:30.403Z,4.53
2023-01-12T07:41:04.031Z,2.92
2023-01-12T07:43:33.647Z,3.38
2023-01-12T07:46:01.131Z,7.85
2023-01-12T07:48:28.321Z,2.80
2023-01-12T07:50:58.566Z,5.28
2023-01-12T07:53:25.684Z,5.10
2023-01-12T07:55:52.571Z,6.65
2023-01-12T07:58:19.508Z,2.13
2023-01-12T08:00:46.460Z,6.18
2023-01-12T08:03:16.576Z,2.85
2023-01-12T08:05:43.884Z,5.18
2023-01-12T08:08:10.871Z,3.92
2023-01-12T08:10:38.137Z,4.57
2023-01-12T08:13:05.110Z,5.25
2023-01-12T08:15:39.293Z,6.25
2023-01-12T08:18:37.211Z,5.55
2023-01-12T08:21:10.151Z,5.20
2023-01-12T08:23:42.659Z,3.97
2023-01-12T08:26:15.839Z,4.10
2023-01-12T08:28:57.552Z,3.85
2023-01-12T08:31:26.264Z,2.25
2023-01-12T08:33:55.069Z,4.28
2023-01-12T08:36:24.965Z,5.93
2023-01-12T08:38:52.219Z,4.00
2023-01-12T08:41:34.384Z,3.10
2023-01-12T08:44:03.545Z,5.47
2023-01-12T08:46:39.479Z,3.78
2023-01-12T08:49:11.645Z,2.88
2023-01-12T08:51:44.433Z,3.88
2023-01-12T08:54:12.978Z,3.83
2023-01-12T08:56:40.195Z,2.22
2023-01-12T08:59:07.248Z,2.08
2023-01-12T09:01:35.125Z,2.67
2023-01-12T09:04:02.684Z,2.55
2023-01-12T09:06:32.100Z,2.55
2023-01-12T09:09:01.067Z,1.30
2023-01-12T09:11:29.811Z,4.13
2023-01-12T09:13:58.611Z,1.42
2023-01-12T09:16:27.178Z,3.90
2023-01-12T09:18:54.173Z,2.35
2023-01-12T09:21:22.879Z,2.70
2023-01-12T09:23:50.204Z,1.58
2023-01-12T09:26:19.725Z,3.53
2023-01-12T09:28:47.217Z,2.78
2023-01-12T09:31:18.757Z,2.38
2023-01-12T09:33:46.680Z,2.25
2023-01-12T09:36:19.536Z,1.75
2023-01-12T09:38:47.836Z,2.80
2023-01-12T09:41:40.451Z,3.58
2023-01-12T09:44:37.497Z,1.60
2023-01-12T09:47:08.995Z,1.95
2023-01-12T09:49:43.879Z,1.58
2023-01-12T09:52:26.366Z,1.15
2023-01-12T09:54:53.540Z,1.90
2023-01-12T09:57:55.780Z,2.45
2023-01-12T10:00:23.672Z,3.90
2023-01-12T10:03:10.998Z,1.83
2023-01-12T10:05:42.182Z,1.42
2023-01-12T10:08:39.859Z,2.10
2023-01-12T10:11:28.037Z,2.47
2023-01-12T10:14:14.023Z,2.25
2023-01-12T10:16:56.059Z,2.78
2023-01-12T10:19:29.569Z,1.88
2023-01-12T10:21:57.501Z,1.60
2023-01-12T10:24:25.588Z,1.70
2023-01-12T10:27:15.130Z,2.90
2023-01-12T10:29:42.128Z,2.83
2023-01-12T10:32:12.668Z,2.00
2023-01-12T10:34:52.686Z,3.10
2023-01-12T10:37:19.792Z,2.63
2023-01-12T10:39:46.862Z,1.83
2023-01-12T10:42:44.696Z,1.95
2023-01-12T10:45:17.696Z,4.50
2023-01-12T10:47:46.552Z,2.20
2023-01-12T10:50:28.999Z,3.30
2023-01-12T10:53:16.618Z,3.33
2023-01-12T10:55:45.047Z,1.70
2023-01-12T10:58:26.812Z,3.97
2023-01-12T11:00:54.293Z,2.40
2023-01-12T11:03:32.340Z,2.50
2023-01-12T11:06:38.746Z,3.60
2023-01-12T11:09:38.215Z,1.67
2023-01-12T11:12:25.797Z,1.48
2023-01-12T11:15:18.480Z,4.88
2023-01-12T11:17:57.634Z,4.05
2023-01-12T11:20:54.570Z,1.85
2023-01-12T11:23:39.072Z,1.95
2023-01-12T11:26:17.601Z,3.03
2023-01-12T11:28:55.044Z,1.42
2023-01-12T11:31:43.529Z,1.88
2023-01-12T11:34:13.557Z,1.48
2023-01-12T11:36:44.871Z,2.13
2023-01-12T11:39:16.248Z,2.03
2023-01-12T11:42:13.681Z,1.75
2023-01-12T11:45:01.682Z,1.85
2023-01-12T11:47:42.529Z,2.05
2023-01-12T11:50:15.241Z,1.13
2023-01-12T11:52:42.733Z,1.98
2023-01-12T11:55:15.564Z,1.10
2023-01-12T11:57:57.900Z,3.00
2023-01-12T12:00:30.199Z,1.33
2023-01-12T12:03:27.119Z,1.13
2023-01-12T12:06:33.767Z,1.58
2023-01-12T12:09:12.685Z,3.70
2023-01-12T12:12:03.459Z,1.90
2023-01-12T12:14:58.583Z,3.20
2023-01-12T12:17:56.290Z,1.52
2023-01-12T12:20:43.829Z,1.20
2023-01-12T12:23:28.869Z,0.82
2023-01-12T12:26:07.979Z,1.80
2023-01-12T12:29:00.656Z,1.95
2023-01-12T12:32:00.977Z,1.27
2023-01-12T12:34:52.188Z,0.80
2023-01-12T12:37:21.572Z,1.20
2023-01-12T12:39:49.816Z,2.55
2023-01-12T12:43:09.087Z,1.00
2023-01-12T12:45:53.743Z,0.70
2023-01-12T12:48:30.322Z,1.40
2023-01-12T12:51:07.071Z,0.88
2023-01-12T12:53:46.207Z,2.17
2023-01-12T12:56:16.741Z,0.88
2023-01-12T12:59:00.945Z,2.03
2023-01-12T13:01:31.012Z,0.70
2023-01-12T13:04:00.608Z,1.13
2023-01-12T13:06:31.477Z,1.27
2023-01-12T13:09:19.581Z,0.63
2023-01-12T13:11:54.107Z,1.40
2023-01-12T13:14:34.608Z,1.85
2023-01-12T13:17:19.771Z,3.42
2023-01-12T13:20:01.295Z,0.85
2023-01-12T13:22:41.971Z,0.85
2023-01-12T13:25:19.477Z,0.93
2023-01-12T13:28:00.017Z,2.38
2023-01-12T13:30:26.976Z,1.65
2023-01-12T13:32:57.124Z,1.48
2023-01-12T13:35:26.196Z,0.70
2023-01-12T13:38:32.296Z,3.70
2023-01-12T13:41:13.756Z,1.63
2023-01-12T13:44:00.917Z,0.77
2023-01-12T13:46:36.646Z,1.63
2023-01-12T13:49:19.415Z,1.60
2023-01-12T13:52:19.526Z,2.42
2023-01-12T13:54:51.367Z,0.95
2023-01-12T13:57:25.185Z,1.08
2023-01-12T14:00:01.144Z,3.60
2023-01-12T14:02:32.534Z,1.38
2023-01-12T14:05:44.586Z,0.77
2023-01-12T14:08:34.416Z,0.85
2023-01-12T14:11:10.844Z,1.40
2023-01-12T14:13:56.246Z,0.68
2023-01-12T14:16:42.526Z,0.95
2023-01-12T14:19:29.522Z,0.80
2023-01-12T14:22:00.203Z,0.80
2023-01-12T14:24:27.217Z,0.82
2023-01-12T14:26:54.380Z,2.47
2023-01-12T14:29:21.739Z,0.88
2023-01-12T14:31:51.959Z,0.60
2023-01-12T14:34:33.015Z,2.15
2023-01-12T14:37:01.500Z,2.75
2023-01-12T14:39:31.967Z,1.88
2023-01-12T14:42:17.523Z,2.67
2023-01-12T14:45:10.499Z,1.38
2023-01-12T14:47:38.782Z,1.35
2023-01-12T14:50:17.483Z,1.45
2023-01-12T14:52:46.741Z,3.13
2023-01-12T14:55:41.696Z,2.17
2023-01-12T14:58:20.824Z,0.75
2023-01-12T15:00:48.037Z,1.30
2023-01-12T15:03:31.872Z,0.70
2023-01-12T15:06:06.631Z,1.67
2023-01-12T15:08:34.643Z,1.55
2023-01-12T15:11:09.825Z,1.05
2023-01-12T15:13:38.099Z,1.52
2023-01-12T15:16:24.782Z,0.70
2023-01-12T15:19:10.351Z,0.60
2023-01-12T15:21:57.386Z,1.48
2023-01-12T15:24:48.725Z,0.82
2023-01-12T15:27:18.201Z,1.17
2023-01-12T15:29:45.387Z,3.10
2023-01-12T15:32:14.906Z,0.60
2023-01-12T15:34:42.069Z,0.95
2023-01-12T15:37:15.517Z,1.85
2023-01-12T15:39:42.688Z,1.90
2023-01-12T15:42:17.507Z,0.63
2023-01-12T15:44:45.327Z,2.42
2023-01-12T15:47:16.900Z,1.58
2023-01-12T15:49:48.495Z,0.98
2023-01-12T15:52:25.113Z,1.27
2023-01-12T15:54:53.600Z,1.20
2023-01-12T15:57:20.719Z,2.05
2023-01-12T15:59:47.756Z,1.08
2023-01-12T16:02:41.884Z,0.95
2023-01-12T16:05:11.423Z,1.38
2023-01-12T16:07:38.424Z,1.00
2023-01-12T16:10:05.828Z,3.05
2023-01-12T16:12:32.930Z,1.25
2023-01-12T16:15:01.052Z,3.05
2023-01-12T16:17:28.036Z,1.52
2023-01-12T16:19:55.123Z,1.85
2023-01-12T16:22:27.947Z,0.90
2023-01-12T16:24:57.029Z,1.65
2023-01-12T16:27:26.074Z,2.22
2023-01-12T16:29:53.296Z,1.20
2023-01-12T16:32:27.153Z,2.88
2023-01-12T16:34:54.343Z,24.67
2023-01-12T16:37:23.101Z,33.80
2023-01-12T16:39:50.293Z,28.25
2023-01-12T16:42:17.232Z,27.05
2023-01-12T16:44:44.200Z,26.60
2023-01-12T16:47:14.068Z,32.95
2023-01-12T16:49:41.766Z,22.35
2023-01-12T16:52:11.085Z,30.42
2023-01-12T16:54:42.414Z,32.97
2023-01-12T16:57:10.747Z,27.08
2023-01-12T16:59:37.750Z,26.00
2023-01-12T17:02:08.108Z,27.52
2023-01-12T17:04:36.314Z,17.83
2023-01-12T17:07:05.373Z,16.45
2023-01-12T17:09:34.923Z,20.35
2023-01-12T17:12:02.953Z,12.93
2023-01-12T17:14:33.616Z,11.00
2023-01-12T17:17:04.050Z,11.70
2023-01-12T17:19:33.272Z,15.20
2023-01-12T17:22:02.182Z,15.02
2023-01-12T17:24:31.054Z,17.13
2023-01-12T17:26:58.755Z,9.70
2023-01-12T17:29:27.491Z,8.68
2023-01-12T17:32:05.103Z,8.65
2023-01-12T17:34:36.635Z,13.13
2023-01-12T17:37:04.354Z,12.07
2023-01-12T17:39:31.651Z,12.82
2023-01-12T17:42:17.176Z,10.23
2023-01-12T17:44:44.336Z,9.10
2023-01-12T17:47:12.079Z,7.40
2023-01-12T17:49:39.209Z,9.10
2023-01-12T17:52:06.178Z,7.68
2023-01-12T17:54:33.488Z,7.80
2023-01-12T17:57:00.425Z,8.30
2023-01-12T17:59:27.470Z,6.95
2023-01-12T18:01:55.428Z,6.53
2023-01-12T18:04:22.638Z,6.50
2023-01-12T18:06:49.929Z,7.10
2023-01-12T18:09:17.564Z,6.72
2023-01-12T18:11:44.595Z,3.97
2023-01-12T18:14:12.225Z,4.20
2023-01-12T18:16:39.232Z,3.38
2023-01-12T18:19:10.271Z,5.45
2023-01-12T18:21:37.244Z,5.38
2023-01-12T18:24:04.461Z,2.83
2023-01-12T18:26:35.761Z,4.03
2023-01-12T18:29:05.349Z,3.30
2023-01-12T18:31:37.437Z,2.90
2023-01-12T18:34:06.160Z,4.35
2023-01-12T18:36:35.936Z,4.13
2023-01-12T18:39:05.357Z,4.00
2023-01-12T18:41:51.410Z,2.50
2023-01-12T18:44:18.433Z,2.70
2023-01-12T18:47:03.995Z,4.82
2023-01-12T18:49:33.126Z,4.50
2023-01-12T18:52:19.538Z,3.90
2023-01-12T18:54:48.138Z,2.38
2023-01-12T18:57:18.994Z,4.40
2023-01-12T18:59:47.828Z,3.05
2023-01-12T19:02:16.685Z,2.13
2023-01-12T19:04:49.936Z,3.38
2023-01-12T19:07:27.516Z,2.42
2023-01-12T19:09:54.849Z,6.35
2023-01-12T19:12:22.026Z,3.03
2023-01-12T19:15:07.728Z,3.03
2023-01-12T19:17:34.874Z,2.03
2023-01-12T19:20:17.180Z,1.88
2023-01-12T19:23:02.649Z,3.45
2023-01-12T19:25:48.085Z,3.92
2023-01-12T19:28:38.344Z,3.55
2023-01-12T19:31:07.856Z,1.73
2023-01-12T19:33:34.921Z,4.63
2023-01-12T19:36:07.820Z,3.05
2023-01-12T19:38:36.158Z,3.47
2023-01-12T19:41:34.642Z,1.75
2023-01-12T19:44:05.316Z,3.15
2023-01-12T19:46:33.193Z,2.83
2023-01-12T19:49:00.453Z,2.88
2023-01-12T19:51:29.835Z,2.22
2023-01-12T19:53:56.775Z,2.83
2023-01-12T19:56:23.773Z,1.38
2023-01-12T19:58:51.778Z,5.13
2023-01-12T20:01:23.142Z,2.22
2023-01-12T20:03:50.834Z,4.85
2023-01-12T20:06:17.997Z,2.47
2023-01-12T20:08:45.200Z,2.72
2023-01-12T20:11:12.183Z,3.03
2023-01-12T20:13:39.151Z,2.35
2023-01-12T20:16:10.666Z,1.05
2023-01-12T20:18:38.272Z,3.92
2023-01-12T20:21:09.260Z,1.00
2023-01-12T20:23:36.290Z,2.05
2023-01-12T20:26:11.338Z,1.45
2023-01-12T20:28:38.811Z,2.55
2023-01-12T20:31:14.331Z,2.20
2023-01-12T20:33:41.916Z,2.78
2023-01-12T20:36:13.427Z,1.20
2023-01-12T20:38:41.075Z,2.70
2023-01-12T20:41:08.635Z,2.67
2023-01-12T20:43:35.987Z,1.63
2023-01-12T20:46:06.571Z,1.50
2023-01-12T20:48:33.723Z,2.28
2023-01-12T20:51:03.815Z,2.15
2023-01-12T20:53:31.627Z,2.90
2023-01-12T20:55:58.755Z,1.38
2023-01-12T20:58:25.772Z,1.48
2023-01-12T21:00:53.345Z,1.73
2023-01-12T21:03:20.789Z,1.80
2023-01-12T21:05:49.454Z,2.63
2023-01-12T21:08:17.481Z,1.33
2023-01-12T21:10:52.905Z,1.73
2023-01-12T21:13:21.126Z,1.17
2023-01-12T21:15:48.447Z,1.65
2023-01-12T21:18:15.521Z,1.27
2023-01-12T21:20:43.646Z,2.00
2023-01-12T21:23:11.568Z,1.10
2023-01-12T21:25:45.418Z,1.15
2023-01-12T21:28:12.629Z,0.88
2023-01-12T21:30:40.834Z,1.77
2023-01-12T21:33:07.882Z,1.10
2023-01-12T21:35:35.192Z,1.10
2023-01-12T21:38:02.307Z,1.02
2023-01-12T21:40:29.349Z,2.55
2023-01-12T21:43:08.666Z,1.20
2023-01-12T21:45:43.828Z,1.35
2023-01-12T21:48:12.604Z,1.55
2023-01-12T21:50:39.810Z,1.65
2023-01-12T21:53:07.728Z,1.08
2023-01-12T21:55:35.471Z,1.15
2023-01-12T21:58:02.465Z,1.83
2023-01-12T22:00:30.137Z,0.88
2023-01-12T22:02:57.618Z,1.27
2023-01-12T22:05:25.612Z,4.90
2023-01-12T22:07:55.416Z,0.98
2023-01-12T22:10:24.015Z,1.77
2023-01-12T22:12:55.699Z,1.33
2023-01-12T22:15:24.113Z,1.20
2023-01-12T22:17:52.628Z,1.20
2023-01-12T22:20:20.623Z,0.70
2023-01-12T22:22:47.785Z,1.17
2023-01-12T22:25:16.012Z,1.17
2023-01-12T22:27:43.182Z,1.23
2023-01-12T22:30:16.828Z,2.05
2023-01-12T22:32:44.203Z,1.48
2023-01-12T22:35:12.332Z,1.90
2023-01-12T22:37:40.423Z,1.48
2023-01-12T22:40:10.392Z,1.25
2023-01-12T22:43:12.823Z,1.48
2023-01-12T22:45:40.548Z,0.80
2023-01-12T22:48:07.649Z,1.00
2023-01-12T22:50:41.653Z,1.73
2023-01-12T22:53:08.662Z,1.23
2023-01-12T22:55:40.321Z,0.90
2023-01-12T22:58:08.211Z,1.08
2023-01-12T23:00:39.888Z,2.03
2023-01-12T23:03:12.060Z,3.22
2023-01-12T23:05:54.170Z,1.75
2023-01-12T23:08:21.327Z,1.02
2023-01-12T23:10:48.701Z,1.55
2023-01-12T23:13:19.042Z,3.65
2023-01-12T23:15:53.437Z,1.77
2023-01-12T23:18:22.667Z,0.98
2023-01-12T23:20:49.859Z,2.38
2023-01-12T23:23:20.549Z,1.77
2023-01-12T23:25:48.138Z,1.40
2023-01-12T23:28:15.645Z,4.10
2023-01-12T23:30:43.349Z,2.67
2023-01-12T23:33:10.604Z,2.33
2023-01-12T23:35:40.419Z,2.40
2023-01-12T23:38:10.574Z,1.10
2023-01-12T23:40:37.589Z,2.83
2023-01-12T23:43:04.595Z,2.65
2023-01-12T23:45:33.887Z,3.08
2023-01-12T23:48:00.901Z,4.38
2023-01-12T23:50:27.931Z,1.55
2023-01-12T23:52:55.746Z,1.75
2023-01-12T23:55:23.239Z,3.58
2023-01-12T23:57:50.262Z,2.40
